createdAt,value
2022-09-22T00:04:39.305Z,23.24
2022-09-22T00:09:43.328Z,23.21
2022-09-22T00:14:46.815Z,23.19
2022-09-22T00:19:50.748Z,23.19
2022-09-22T00:24:54.164Z,23.13
2022-09-22T00:29:57.364Z,23.11
2022-09-22T00:35:00.586Z,23.11
2022-09-22T00:40:04.264Z,23.11
2022-09-22T00:45:12.182Z,23.09
2022-09-22T00:50:22.141Z,23.08
2022-09-22T00:55:34.720Z,23.04
2022-09-22T01:00:38.779Z,23.02
2022-09-22T01:05:44.502Z,23.03
2022-09-22T01:10:49.250Z,23.08
2022-09-22T01:16:16.912Z,23.16
2022-09-22T01:21:34.784Z,23.21
2022-09-22T01:27:01.135Z,23.18
2022-09-22T01:32:21.626Z,23.14
2022-09-22T01:37:40.395Z,23.12
2022-09-22T01:42:58.491Z,23.09
2022-09-22T01:48:34.518Z,23.07
2022-09-22T01:53:45.048Z,23.03
2022-09-22T01:58:55.994Z,23.01
2022-09-22T02:04:14.657Z,23.06
2022-09-22T02:09:21.744Z,23.08
2022-09-22T02:14:26.459Z,23.06
2022-09-22T02:19:35.889Z,23.01
2022-09-22T02:24:42.449Z,22.99
2022-09-22T02:29:51.149Z,22.92
2022-09-22T02:34:55.985Z,22.91
2022-09-22T02:40:10.202Z,22.93
2022-09-22T02:45:26.825Z,22.94
2022-09-22T02:50:31.413Z,22.92
2022-09-22T02:55:35.282Z,22.94
2022-09-22T03:00:38.741Z,22.98
2022-09-22T03:05:42.133Z,23.02
2022-09-22T03:10:45.741Z,23.07
2022-09-22T03:15:49.151Z,23.08
2022-09-22T03:20:52.262Z,23.05
2022-09-22T03:25:55.607Z,23.02
2022-09-22T03:30:59.161Z,22.97
2022-09-22T03:36:02.803Z,22.95
2022-09-22T03:41:06.125Z,22.95
2022-09-22T03:46:09.597Z,23.02
2022-09-22T03:51:13.134Z,23.05
2022-09-22T03:56:16.682Z,23.08
2022-09-22T04:01:20.712Z,23.05
2022-09-22T04:06:24.695Z,23.09
2022-09-22T04:11:28.266Z,23.17
2022-09-22T04:16:31.875Z,23.19
2022-09-22T04:21:35.187Z,23.21
2022-09-22T04:26:51.590Z,23.27
2022-09-22T04:32:00.010Z,23.38
2022-09-22T04:37:03.626Z,23.52
2022-09-22T04:42:07.859Z,23.82
2022-09-22T04:47:11.378Z,24.07
2022-09-22T04:52:15.002Z,24.41
2022-09-22T04:57:20.579Z,25.47
2022-09-22T05:02:24.287Z,27.62
2022-09-22T05:07:27.703Z,27.72
2022-09-22T05:12:31.065Z,26.77
2022-09-22T05:17:34.546Z,26.03
2022-09-22T05:22:42.316Z,25.61
2022-09-22T05:27:51.295Z,25.18
2022-09-22T05:32:55.165Z,24.95
2022-09-22T05:37:58.512Z,24.90
2022-09-22T05:43:01.594Z,24.99
2022-09-22T05:48:04.907Z,25.14
2022-09-22T05:53:10.199Z,25.35
2022-09-22T05:58:13.615Z,25.44
2022-09-22T06:03:17.144Z,25.44
2022-09-22T06:08:20.566Z,25.50
2022-09-22T06:13:23.769Z,25.48
2022-09-22T06:18:27.148Z,25.39
2022-09-22T06:23:30.837Z,25.38
2022-09-22T06:28:34.700Z,25.43
2022-09-22T06:33:38.339Z,25.41
2022-09-22T06:38:41.608Z,25.47
2022-09-22T06:43:45.221Z,25.49
2022-09-22T06:48:50.683Z,25.59
2022-09-22T06:53:54.753Z,25.70
2022-09-22T06:59:13.112Z,25.90
2022-09-22T07:04:16.889Z,26.11
2022-09-22T07:09:20.361Z,26.26
2022-09-22T07:14:24.068Z,26.46
2022-09-22T07:19:27.357Z,26.65
2022-09-22T07:24:31.096Z,26.94
2022-09-22T07:29:34.702Z,27.19
2022-09-22T07:34:39.244Z,27.39
2022-09-22T07:39:42.844Z,27.40
2022-09-22T07:44:46.407Z,27.29
2022-09-22T07:49:49.687Z,27.20
2022-09-22T07:54:53.015Z,27.23
2022-09-22T07:59:56.379Z,27.33
2022-09-22T08:04:59.820Z,27.50
2022-09-22T08:10:03.397Z,27.73
2022-09-22T08:15:07.019Z,27.82
2022-09-22T08:20:10.635Z,27.92
2022-09-22T08:25:14.066Z,28.12
2022-09-22T08:30:17.689Z,28.10
2022-09-22T08:35:21.199Z,28.15
2022-09-22T08:40:24.865Z,28.14
2022-09-22T08:45:33.027Z,28.14
2022-09-22T08:50:40.120Z,27.93
2022-09-22T08:55:47.322Z,27.77
2022-09-22T09:01:14.112Z,27.87
2022-09-22T09:06:57.748Z,28.01
2022-09-22T09:12:06.931Z,28.12
2022-09-22T09:17:15.542Z,28.17
2022-09-22T09:22:26.148Z,28.30
2022-09-22T09:27:38.530Z,28.22
2022-09-22T09:32:59.125Z,28.26
2022-09-22T09:38:07.801Z,28.09
2022-09-22T09:43:11.306Z,28.05
2022-09-22T09:48:33.980Z,27.97
2022-09-22T09:53:44.621Z,28.05
2022-09-22T09:59:02.416Z,28.03
2022-09-22T10:04:05.884Z,27.83
2022-09-22T10:09:09.857Z,27.63
2022-09-22T10:14:19.611Z,27.54
2022-09-22T10:19:28.774Z,27.29
2022-09-22T10:24:33.582Z,27.29
2022-09-22T10:29:36.972Z,27.55
2022-09-22T10:34:47.587Z,27.69
2022-09-22T10:39:58.511Z,27.72
2022-09-22T10:45:06.915Z,27.84
2022-09-22T10:50:52.912Z,28.00
2022-09-22T10:56:11.157Z,27.82
2022-09-22T11:01:33.131Z,27.58
2022-09-22T11:06:56.755Z,27.51
2022-09-22T11:12:19.068Z,27.49
2022-09-22T11:17:48.473Z,27.65
2022-09-22T11:23:18.228Z,27.80
2022-09-22T11:28:43.060Z,27.82
2022-09-22T11:34:10.333Z,27.91
2022-09-22T11:39:51.864Z,27.95
2022-09-22T11:45:06.590Z,27.93
2022-09-22T11:50:15.962Z,27.81
2022-09-22T11:55:57.834Z,27.82
2022-09-22T12:01:20.965Z,27.58
2022-09-22T12:06:30.612Z,27.60
2022-09-22T12:11:37.928Z,27.49
2022-09-22T12:16:44.135Z,27.20
2022-09-22T12:21:51.937Z,27.13
2022-09-22T12:26:58.419Z,27.12
2022-09-22T12:32:02.405Z,27.22
2022-09-22T12:37:36.450Z,27.22
2022-09-22T12:42:46.130Z,27.15
2022-09-22T12:47:53.617Z,27.18
2022-09-22T12:53:09.861Z,27.17
2022-09-22T12:58:19.104Z,27.26
2022-09-22T13:03:25.479Z,27.24
2022-09-22T13:08:32.076Z,26.97
2022-09-22T13:13:49.092Z,26.87
2022-09-22T13:18:59.458Z,26.84
2022-09-22T13:24:04.242Z,26.90
2022-09-22T13:29:16.309Z,26.83
2022-09-22T13:34:29.290Z,26.87
2022-09-22T13:39:35.578Z,26.87
2022-09-22T13:44:42.098Z,26.78
2022-09-22T13:49:49.424Z,26.69
2022-09-22T13:54:56.510Z,26.66
2022-09-22T14:00:01.562Z,26.60
2022-09-22T14:05:18.260Z,26.49
2022-09-22T14:10:22.143Z,26.46
2022-09-22T14:15:36.689Z,26.49
2022-09-22T14:20:42.050Z,26.43
2022-09-22T14:25:46.160Z,26.38
2022-09-22T14:30:51.316Z,26.39
2022-09-22T14:36:06.222Z,26.34
2022-09-22T14:41:25.825Z,26.21
2022-09-22T14:46:39.070Z,26.13
2022-09-22T14:51:47.159Z,26.04
2022-09-22T14:56:50.502Z,26.00
2022-09-22T15:01:56.490Z,25.92
2022-09-22T15:07:04.486Z,25.88
2022-09-22T15:12:40.470Z,25.77
2022-09-22T15:17:50.022Z,25.61
2022-09-22T15:22:54.237Z,25.48
2022-09-22T15:27:57.501Z,25.36
2022-09-22T15:33:00.863Z,25.26
2022-09-22T15:38:05.094Z,25.15
2022-09-22T15:43:13.667Z,25.04
2022-09-22T15:48:38.927Z,24.96
2022-09-22T15:53:42.318Z,24.86
2022-09-22T15:58:46.190Z,24.77
2022-09-22T16:03:49.861Z,24.71
2022-09-22T16:08:54.403Z,24.65
2022-09-22T16:14:00.243Z,24.65
2022-09-22T16:19:05.077Z,24.63
2022-09-22T16:24:10.980Z,24.60
2022-09-22T16:29:14.483Z,24.56
2022-09-22T16:34:18.056Z,24.54
2022-09-22T16:39:22.867Z,24.53
2022-09-22T16:44:27.682Z,24.48
2022-09-22T16:49:30.888Z,24.45
2022-09-22T16:54:35.121Z,24.41
2022-09-22T16:59:38.692Z,24.37
2022-09-22T17:04:42.188Z,24.35
2022-09-22T17:09:48.511Z,24.34
2022-09-22T17:14:51.879Z,24.33
2022-09-22T17:19:55.123Z,24.29
2022-09-22T17:24:58.900Z,24.30
2022-09-22T17:30:02.837Z,24.28
2022-09-22T17:35:07.345Z,24.25
2022-09-22T17:40:10.791Z,24.24
2022-09-22T17:45:14.190Z,24.22
2022-09-22T17:50:17.421Z,24.19
2022-09-22T17:55:22.743Z,24.17
2022-09-22T18:00:26.312Z,24.17
2022-09-22T18:05:29.566Z,24.15
2022-09-22T18:10:32.829Z,24.13
2022-09-22T18:15:36.299Z,24.12
2022-09-22T18:20:39.798Z,24.11
2022-09-22T18:25:43.309Z,24.08
2022-09-22T18:30:46.411Z,24.03
2022-09-22T18:35:49.607Z,24.04
2022-09-22T18:40:52.838Z,24.02
2022-09-22T18:45:56.608Z,24.00
2022-09-22T18:50:59.981Z,23.98
2022-09-22T18:56:17.582Z,23.95
2022-09-22T19:01:22.345Z,23.93
2022-09-22T19:06:25.924Z,23.89
2022-09-22T19:11:29.390Z,23.88
2022-09-22T19:16:32.797Z,23.84
2022-09-22T19:21:36.689Z,23.81
2022-09-22T19:26:41.729Z,23.79
2022-09-22T19:31:45.957Z,23.80
2022-09-22T19:36:49.555Z,23.79
2022-09-22T19:41:53.655Z,23.82
2022-09-22T19:46:57.006Z,23.83
2022-09-22T19:52:00.250Z,23.79
2022-09-22T19:57:03.867Z,23.77
2022-09-22T20:02:15.461Z,23.76
2022-09-22T20:07:18.698Z,23.74
2022-09-22T20:12:22.555Z,23.74
2022-09-22T20:17:26.674Z,23.72
2022-09-22T20:22:31.309Z,23.72
2022-09-22T20:27:37.359Z,23.72
2022-09-22T20:32:41.182Z,23.73
2022-09-22T20:37:44.993Z,23.72
2022-09-22T20:42:53.735Z,23.72
2022-09-22T20:47:57.454Z,23.72
2022-09-22T20:53:01.464Z,23.73
2022-09-22T20:58:05.816Z,23.72
2022-09-22T21:03:09.440Z,23.67
2022-09-22T21:08:12.878Z,23.61
2022-09-22T21:13:16.280Z,23.58
2022-09-22T21:18:20.157Z,23.55
2022-09-22T21:23:24.320Z,23.50
2022-09-22T21:28:28.892Z,23.49
2022-09-22T21:33:33.958Z,23.48
2022-09-22T21:38:38.020Z,23.45
2022-09-22T21:43:41.890Z,23.41
2022-09-22T21:48:45.521Z,23.39
2022-09-22T21:53:52.419Z,23.37
2022-09-22T21:58:56.021Z,23.36
2022-09-22T22:04:01.305Z,23.34
2022-09-22T22:09:20.169Z,23.28
2022-09-22T22:14:26.433Z,23.22
2022-09-22T22:19:30.144Z,23.24
2022-09-22T22:24:33.690Z,23.21
2022-09-22T22:29:38.416Z,23.23
2022-09-22T22:34:41.871Z,23.19
2022-09-22T22:39:45.257Z,23.17
2022-09-22T22:44:48.668Z,23.12
2022-09-22T22:49:52.161Z,23.11
2022-09-22T22:54:55.516Z,23.08
2022-09-22T22:59:58.906Z,23.05
2022-09-22T23:05:02.357Z,23.06
2022-09-22T23:10:06.613Z,23.08
2022-09-22T23:15:10.476Z,23.06
2022-09-22T23:20:14.044Z,23.07
2022-09-22T23:25:17.577Z,23.03
2022-09-22T23:30:20.984Z,22.99
2022-09-22T23:35:24.384Z,22.97
2022-09-22T23:40:30.607Z,22.93
2022-09-22T23:45:40.843Z,22.89
2022-09-22T23:50:48.916Z,22.90
2022-09-22T23:55:52.844Z,22.88
